sensor_id;sensor_type;location;lat;lon;timestamp;P1;durP1;ratioP1;P2;durP2;ratioP2
13588;SDS011;6865;52.552;13.434;2023-10-13T00:00:41;8.80;;;4.50;;
13588;SDS011;6865;52.552;13.434;2023-10-13T00:03:08;9.03;;;4.77;;
13588;SDS011;6865;52.552;13.434;2023-10-13T00:05:42;11.00;;;5.20;;
13588;SDS011;6865;52.552;13.434;2023-10-13T00:08:10;9.17;;;4.63;;
13588;SDS011;6865;52.552;13.434;2023-10-13T00:10:39;12.03;;;5.27;;
13588;SDS011;6865;52.552;13.434;2023-10-13T00:13:06;10.00;;;5.07;;
13588;SDS011;6865;52.552;13.434;2023-10-13T00:15:40;11.43;;;5.03;;
13588;SDS011;6865;52.552;13.434;2023-10-13T00:18:25;9.27;;;5.17;;
13588;SDS011;6865;52.552;13.434;2023-10-13T00:21:08;8.83;;;4.93;;
13588;SDS011;6865;52.552;13.434;2023-10-13T00:23:42;11.67;;;5.53;;
13588;SDS011;6865;52.552;13.434;2023-10-13T00:26:20;11.10;;;5.47;;
13588;SDS011;6865;52.552;13.434;2023-10-13T00:28:58;13.60;;;5.90;;
13588;SDS011;6865;52.552;13.434;2023-10-13T00:31:34;10.63;;;5.50;;
13588;SDS011;6865;52.552;13.434;2023-10-13T00:34:03;18.67;;;5.80;;
13588;SDS011;6865;52.552;13.434;2023-10-13T00:36:51;11.80;;;4.97;;
13588;SDS011;6865;52.552;13.434;2023-10-13T00:39:36;8.67;;;4.37;;
13588;SDS011;6865;52.552;13.434;2023-10-13T00:42:06;8.90;;;4.93;;
13588;SDS011;6865;52.552;13.434;2023-10-13T00:44:34;6.40;;;4.23;;
13588;SDS011;6865;52.552;13.434;2023-10-13T00:47:15;8.13;;;3.70;;
13588;SDS011;6865;52.552;13.434;2023-10-13T00:50:03;10.10;;;3.77;;
13588;SDS011;6865;52.552;13.434;2023-10-13T00:52:31;8.07;;;3.97;;
13588;SDS011;6865;52.552;13.434;2023-10-13T00:55:02;8.13;;;3.90;;
13588;SDS011;6865;52.552;13.434;2023-10-13T00:57:30;11.07;;;3.60;;
13588;SDS011;6865;52.552;13.434;2023-10-13T00:59:58;8.67;;;3.50;;
13588;SDS011;6865;52.552;13.434;2023-10-13T01:02:25;6.03;;;3.37;;
13588;SDS011;6865;52.552;13.434;2023-10-13T01:05:05;7.37;;;2.90;;
13588;SDS011;6865;52.552;13.434;2023-10-13T01:07:36;8.63;;;3.53;;
13588;SDS011;6865;52.552;13.434;2023-10-13T01:10:04;5.57;;;3.30;;
13588;SDS011;6865;52.552;13.434;2023-10-13T01:12:35;6.73;;;2.97;;
13588;SDS011;6865;52.552;13.434;2023-10-13T01:15:02;6.47;;;3.17;;
13588;SDS011;6865;52.552;13.434;2023-10-13T01:17:35;5.77;;;3.03;;
13588;SDS011;6865;52.552;13.434;2023-10-13T01:20:03;7.30;;;4.20;;
13588;SDS011;6865;52.552;13.434;2023-10-13T01:22:31;12.17;;;7.80;;
13588;SDS011;6865;52.552;13.434;2023-10-13T01:24:58;12.40;;;6.73;;
13588;SDS011;6865;52.552;13.434;2023-10-13T01:27:37;9.77;;;5.43;;
13588;SDS011;6865;52.552;13.434;2023-10-13T01:30:04;13.40;;;5.37;;
13588;SDS011;6865;52.552;13.434;2023-10-13T01:32:36;6.93;;;4.10;;
13588;SDS011;6865;52.552;13.434;2023-10-13T01:35:12;10.00;;;3.80;;
13588;SDS011;6865;52.552;13.434;2023-10-13T01:37:38;6.40;;;3.47;;
13588;SDS011;6865;52.552;13.434;2023-10-13T01:40:05;6.77;;;3.97;;
13588;SDS011;6865;52.552;13.434;2023-10-13T01:42:32;6.27;;;3.70;;
13588;SDS011;6865;52.552;13.434;2023-10-13T01:45:02;8.87;;;4.00;;
13588;SDS011;6865;52.552;13.434;2023-10-13T01:47:32;8.77;;;3.87;;
13588;SDS011;6865;52.552;13.434;2023-10-13T01:49:59;10.30;;;4.17;;
13588;SDS011;6865;52.552;13.434;2023-10-13T01:52:47;8.47;;;4.27;;
13588;SDS011;6865;52.552;13.434;2023-10-13T01:55:13;7.33;;;4.43;;
13588;SDS011;6865;52.552;13.434;2023-10-13T01:57:40;10.30;;;3.97;;
13588;SDS011;6865;52.552;13.434;2023-10-13T02:00:13;9.57;;;3.90;;
13588;SDS011;6865;52.552;13.434;2023-10-13T02:02:45;9.47;;;4.43;;
13588;SDS011;6865;52.552;13.434;2023-10-13T02:05:16;8.90;;;4.23;;
13588;SDS011;6865;52.552;13.434;2023-10-13T02:07:43;11.63;;;4.77;;
13588;SDS011;6865;52.552;13.434;2023-10-13T02:10:13;12.93;;;5.10;;
13588;SDS011;6865;52.552;13.434;2023-10-13T02:12:39;13.23;;;4.97;;
13588;SDS011;6865;52.552;13.434;2023-10-13T02:15:10;9.80;;;5.17;;
13588;SDS011;6865;52.552;13.434;2023-10-13T02:17:47;12.10;;;5.03;;
13588;SDS011;6865;52.552;13.434;2023-10-13T02:20:18;9.97;;;5.00;;
13588;SDS011;6865;52.552;13.434;2023-10-13T02:22:48;13.80;;;5.40;;
13588;SDS011;6865;52.552;13.434;2023-10-13T02:25:16;14.27;;;5.27;;
13588;SDS011;6865;52.552;13.434;2023-10-13T02:28:01;14.37;;;5.70;;
13588;SDS011;6865;52.552;13.434;2023-10-13T02:30:28;15.27;;;5.83;;
13588;SDS011;6865;52.552;13.434;2023-10-13T02:32:55;13.77;;;5.50;;
13588;SDS011;6865;52.552;13.434;2023-10-13T02:35:23;15.60;;;5.97;;
13588;SDS011;6865;52.552;13.434;2023-10-13T02:37:57;11.90;;;5.23;;
13588;SDS011;6865;52.552;13.434;2023-10-13T02:40:24;14.93;;;5.63;;
13588;SDS011;6865;52.552;13.434;2023-10-13T02:42:52;9.97;;;5.73;;
13588;SDS011;6865;52.552;13.434;2023-10-13T02:45:18;10.07;;;5.50;;
13588;SDS011;6865;52.552;13.434;2023-10-13T02:47:50;13.20;;;6.10;;
13588;SDS011;6865;52.552;13.434;2023-10-13T02:50:37;14.17;;;6.50;;
13588;SDS011;6865;52.552;13.434;2023-10-13T02:53:09;10.17;;;5.67;;
13588;SDS011;6865;52.552;13.434;2023-10-13T02:55:48;13.80;;;6.33;;
13588;SDS011;6865;52.552;13.434;2023-10-13T02:58:18;15.77;;;6.20;;
13588;SDS011;6865;52.552;13.434;2023-10-13T03:00:47;14.57;;;7.17;;
13588;SDS011;6865;52.552;13.434;2023-10-13T03:03:14;15.03;;;7.03;;
13588;SDS011;6865;52.552;13.434;2023-10-13T03:05:46;12.40;;;6.67;;
13588;SDS011;6865;52.552;13.434;2023-10-13T03:08:12;12.87;;;7.23;;
13588;SDS011;6865;52.552;13.434;2023-10-13T03:10:44;14.33;;;6.87;;
13588;SDS011;6865;52.552;13.434;2023-10-13T03:13:14;14.00;;;7.23;;
13588;SDS011;6865;52.552;13.434;2023-10-13T03:15:41;15.97;;;7.27;;
13588;SDS011;6865;52.552;13.434;2023-10-13T03:18:13;10.80;;;7.13;;
13588;SDS011;6865;52.552;13.434;2023-10-13T03:20:44;12.77;;;7.43;;
13588;SDS011;6865;52.552;13.434;2023-10-13T03:23:16;12.90;;;7.47;;
13588;SDS011;6865;52.552;13.434;2023-10-13T03:25:43;17.93;;;8.53;;
13588;SDS011;6865;52.552;13.434;2023-10-13T03:28:10;12.63;;;7.50;;
13588;SDS011;6865;52.552;13.434;2023-10-13T03:30:40;15.17;;;7.23;;
13588;SDS011;6865;52.552;13.434;2023-10-13T03:33:10;12.90;;;8.30;;
13588;SDS011;6865;52.552;13.434;2023-10-13T03:35:40;18.17;;;8.27;;
13588;SDS011;6865;52.552;13.434;2023-10-13T03:38:18;15.20;;;8.07;;
13588;SDS011;6865;52.552;13.434;2023-10-13T03:40:47;16.20;;;8.80;;
13588;SDS011;6865;52.552;13.434;2023-10-13T03:43:23;18.60;;;8.90;;
13588;SDS011;6865;52.552;13.434;2023-10-13T03:45:50;15.37;;;9.47;;
13588;SDS011;6865;52.552;13.434;2023-10-13T03:48:34;15.70;;;9.20;;
13588;SDS011;6865;52.552;13.434;2023-10-13T03:51:18;16.67;;;9.50;;
13588;SDS011;6865;52.552;13.434;2023-10-13T03:53:46;17.60;;;9.37;;
13588;SDS011;6865;52.552;13.434;2023-10-13T03:56:20;18.13;;;9.93;;
13588;SDS011;6865;52.552;13.434;2023-10-13T03:58:58;13.27;;;9.40;;
13588;SDS011;6865;52.552;13.434;2023-10-13T04:01:45;17.03;;;9.67;;
13588;SDS011;6865;52.552;13.434;2023-10-13T04:04:18;16.63;;;9.70;;
13588;SDS011;6865;52.552;13.434;2023-10-13T04:07:15;16.77;;;11.00;;
13588;SDS011;6865;52.552;13.434;2023-10-13T04:10:06;15.53;;;10.97;;
13588;SDS011;6865;52.552;13.434;2023-10-13T04:13:02;16.70;;;10.40;;
13588;SDS011;6865;52.552;13.434;2023-10-13T04:15:42;16.40;;;11.20;;
13588;SDS011;6865;52.552;13.434;2023-10-13T04:18:30;23.33;;;11.40;;
13588;SDS011;6865;52.552;13.434;2023-10-13T04:21:15;19.20;;;11.57;;
13588;SDS011;6865;52.552;13.434;2023-10-13T04:24:02;13.93;;;10.73;;
13588;SDS011;6865;52.552;13.434;2023-10-13T04:26:44;17.17;;;11.27;;
13588;SDS011;6865;52.552;13.434;2023-10-13T04:29:30;18.33;;;13.00;;
13588;SDS011;6865;52.552;13.434;2023-10-13T04:32:26;18.20;;;11.50;;
13588;SDS011;6865;52.552;13.434;2023-10-13T04:34:59;20.87;;;12.43;;
13588;SDS011;6865;52.552;13.434;2023-10-13T04:37:38;19.43;;;12.57;;
13588;SDS011;6865;52.552;13.434;2023-10-13T04:40:27;22.17;;;13.93;;
13588;SDS011;6865;52.552;13.434;2023-10-13T04:43:02;15.87;;;12.07;;
13588;SDS011;6865;52.552;13.434;2023-10-13T04:45:51;20.27;;;14.27;;
13588;SDS011;6865;52.552;13.434;2023-10-13T04:48:21;18.67;;;14.63;;
13588;SDS011;6865;52.552;13.434;2023-10-13T04:50:48;20.97;;;14.77;;
13588;SDS011;6865;52.552;13.434;2023-10-13T04:53:25;24.50;;;13.93;;
13588;SDS011;6865;52.552;13.434;2023-10-13T04:56:01;20.67;;;14.60;;
13588;SDS011;6865;52.552;13.434;2023-10-13T04:58:46;19.00;;;14.13;;
13588;SDS011;6865;52.552;13.434;2023-10-13T05:01:31;21.93;;;14.53;;
13588;SDS011;6865;52.552;13.434;2023-10-13T05:04:17;16.90;;;13.63;;
13588;SDS011;6865;52.552;13.434;2023-10-13T05:07:02;20.07;;;15.10;;
13588;SDS011;6865;52.552;13.434;2023-10-13T05:09:48;21.80;;;15.17;;
13588;SDS011;6865;52.552;13.434;2023-10-13T05:12:33;23.77;;;15.10;;
13588;SDS011;6865;52.552;13.434;2023-10-13T05:15:19;22.40;;;14.67;;
13588;SDS011;6865;52.552;13.434;2023-10-13T05:18:04;22.00;;;14.67;;
13588;SDS011;6865;52.552;13.434;2023-10-13T05:20:54;22.27;;;14.17;;
13588;SDS011;6865;52.552;13.434;2023-10-13T05:23:40;21.73;;;15.33;;
13588;SDS011;6865;52.552;13.434;2023-10-13T05:26:25;21.10;;;14.50;;
13588;SDS011;6865;52.552;13.434;2023-10-13T05:29:11;18.23;;;14.03;;
13588;SDS011;6865;52.552;13.434;2023-10-13T05:31:57;18.67;;;15.00;;
13588;SDS011;6865;52.552;13.434;2023-10-13T05:34:42;18.43;;;14.73;;
13588;SDS011;6865;52.552;13.434;2023-10-13T05:37:27;19.23;;;14.33;;
13588;SDS011;6865;52.552;13.434;2023-10-13T05:40:13;18.90;;;14.63;;
13588;SDS011;6865;52.552;13.434;2023-10-13T05:42:59;23.70;;;13.53;;
13588;SDS011;6865;52.552;13.434;2023-10-13T05:45:44;19.87;;;13.50;;
13588;SDS011;6865;52.552;13.434;2023-10-13T05:48:40;22.33;;;13.90;;
13588;SDS011;6865;52.552;13.434;2023-10-13T05:51:18;16.90;;;12.97;;
13588;SDS011;6865;52.552;13.434;2023-10-13T05:54:04;16.53;;;13.07;;
13588;SDS011;6865;52.552;13.434;2023-10-13T05:56:44;17.77;;;13.27;;
13588;SDS011;6865;52.552;13.434;2023-10-13T05:59:31;20.67;;;13.50;;
13588;SDS011;6865;52.552;13.434;2023-10-13T06:02:22;16.83;;;12.43;;
13588;SDS011;6865;52.552;13.434;2023-10-13T06:05:09;20.10;;;13.20;;
13588;SDS011;6865;52.552;13.434;2023-10-13T06:07:56;16.23;;;13.33;;
13588;SDS011;6865;52.552;13.434;2023-10-13T06:10:42;18.93;;;13.40;;
13588;SDS011;6865;52.552;13.434;2023-10-13T06:13:28;18.77;;;12.90;;
13588;SDS011;6865;52.552;13.434;2023-10-13T06:16:14;18.70;;;13.47;;
13588;SDS011;6865;52.552;13.434;2023-10-13T06:19:00;20.17;;;13.23;;
13588;SDS011;6865;52.552;13.434;2023-10-13T06:21:46;17.87;;;12.47;;
13588;SDS011;6865;52.552;13.434;2023-10-13T06:24:32;18.85;;;12.82;;
13588;SDS011;6865;52.552;13.434;2023-10-13T06:27:17;18.53;;;12.50;;
13588;SDS011;6865;52.552;13.434;2023-10-13T06:30:03;21.07;;;12.53;;
13588;SDS011;6865;52.552;13.434;2023-10-13T06:32:31;18.13;;;11.93;;
13588;SDS011;6865;52.552;13.434;2023-10-13T06:34:59;19.30;;;13.00;;
13588;SDS011;6865;52.552;13.434;2023-10-13T06:37:56;16.92;;;12.70;;
13588;SDS011;6865;52.552;13.434;2023-10-13T06:40:27;16.93;;;12.10;;
13588;SDS011;6865;52.552;13.434;2023-10-13T06:43:00;15.53;;;11.47;;
13588;SDS011;6865;52.552;13.434;2023-10-13T06:45:39;18.02;;;12.10;;
13588;SDS011;6865;52.552;13.434;2023-10-13T06:48:06;19.17;;;12.23;;
13588;SDS011;6865;52.552;13.434;2023-10-13T06:50:37;17.30;;;11.75;;
13588;SDS011;6865;52.552;13.434;2023-10-13T06:53:12;19.00;;;12.50;;
13588;SDS011;6865;52.552;13.434;2023-10-13T06:55:39;17.27;;;12.43;;
13588;SDS011;6865;52.552;13.434;2023-10-13T06:58:06;16.30;;;12.82;;
13588;SDS011;6865;52.552;13.434;2023-10-13T07:00:33;18.58;;;11.95;;
13588;SDS011;6865;52.552;13.434;2023-10-13T07:03:04;18.55;;;12.20;;
13588;SDS011;6865;52.552;13.434;2023-10-13T07:05:36;14.03;;;11.30;;
13588;SDS011;6865;52.552;13.434;2023-10-13T07:08:05;14.67;;;11.27;;
13588;SDS011;6865;52.552;13.434;2023-10-13T07:10:32;15.73;;;11.50;;
13588;SDS011;6865;52.552;13.434;2023-10-13T07:13:11;17.27;;;11.70;;
13588;SDS011;6865;52.552;13.434;2023-10-13T07:15:40;14.82;;;11.45;;
13588;SDS011;6865;52.552;13.434;2023-10-13T07:18:15;24.63;;;11.43;;
13588;SDS011;6865;52.552;13.434;2023-10-13T07:20:49;12.95;;;10.57;;
13588;SDS011;6865;52.552;13.434;2023-10-13T07:23:15;19.08;;;10.73;;
13588;SDS011;6865;52.552;13.434;2023-10-13T07:25:56;13.50;;;9.55;;
13588;SDS011;6865;52.552;13.434;2023-10-13T07:28:34;17.10;;;10.38;;
13588;SDS011;6865;52.552;13.434;2023-10-13T07:31:03;11.80;;;10.23;;
13588;SDS011;6865;52.552;13.434;2023-10-13T07:33:29;14.18;;;9.73;;
13588;SDS011;6865;52.552;13.434;2023-10-13T07:35:59;14.02;;;9.57;;
13588;SDS011;6865;52.552;13.434;2023-10-13T07:38:27;15.45;;;9.48;;
13588;SDS011;6865;52.552;13.434;2023-10-13T07:40:58;10.07;;;8.45;;
13588;SDS011;6865;52.552;13.434;2023-10-13T07:43:33;15.02;;;8.57;;
13588;SDS011;6865;52.552;13.434;2023-10-13T07:46:00;16.67;;;9.32;;
13588;SDS011;6865;52.552;13.434;2023-10-13T07:48:33;11.10;;;8.57;;
13588;SDS011;6865;52.552;13.434;2023-10-13T07:51:03;12.63;;;9.15;;
13588;SDS011;6865;52.552;13.434;2023-10-13T07:53:42;11.80;;;9.20;;
13588;SDS011;6865;52.552;13.434;2023-10-13T07:56:09;15.73;;;8.20;;
13588;SDS011;6865;52.552;13.434;2023-10-13T07:58:40;11.85;;;8.45;;
13588;SDS011;6865;52.552;13.434;2023-10-13T08:01:19;13.48;;;8.38;;
13588;SDS011;6865;52.552;13.434;2023-10-13T08:03:46;13.43;;;8.80;;
13588;SDS011;6865;52.552;13.434;2023-10-13T08:06:16;9.90;;;8.40;;
13588;SDS011;6865;52.552;13.434;2023-10-13T08:08:47;11.93;;;8.10;;
13588;SDS011;6865;52.552;13.434;2023-10-13T08:11:17;10.40;;;7.97;;
13588;SDS011;6865;52.552;13.434;2023-10-13T08:13:50;10.63;;;7.55;;
13588;SDS011;6865;52.552;13.434;2023-10-13T08:16:38;11.75;;;7.43;;
13588;SDS011;6865;52.552;13.434;2023-10-13T08:19:15;10.27;;;7.28;;
13588;SDS011;6865;52.552;13.434;2023-10-13T08:21:43;10.63;;;7.70;;
13588;SDS011;6865;52.552;13.434;2023-10-13T08:24:40;8.95;;;7.15;;
13588;SDS011;6865;52.552;13.434;2023-10-13T08:27:07;12.32;;;7.75;;
13588;SDS011;6865;52.552;13.434;2023-10-13T08:29:43;10.43;;;7.38;;
13588;SDS011;6865;52.552;13.434;2023-10-13T08:32:24;11.57;;;7.30;;
13588;SDS011;6865;52.552;13.434;2023-10-13T08:34:58;9.25;;;6.80;;
13588;SDS011;6865;52.552;13.434;2023-10-13T08:37:35;10.55;;;7.47;;
13588;SDS011;6865;52.552;13.434;2023-10-13T08:40:18;8.00;;;6.68;;
13588;SDS011;6865;52.552;13.434;2023-10-13T08:43:10;10.18;;;7.90;;
13588;SDS011;6865;52.552;13.434;2023-10-13T08:45:41;9.25;;;7.10;;
13588;SDS011;6865;52.552;13.434;2023-10-13T08:48:09;8.25;;;7.00;;
13588;SDS011;6865;52.552;13.434;2023-10-13T08:50:45;10.07;;;6.53;;
13588;SDS011;6865;52.552;13.434;2023-10-13T08:53:31;10.48;;;7.28;;
13588;SDS011;6865;52.552;13.434;2023-10-13T08:56:00;11.90;;;7.00;;
13588;SDS011;6865;52.552;13.434;2023-10-13T09:01:28;12.25;;;6.70;;
13588;SDS011;6865;52.552;13.434;2023-10-13T09:04:15;9.35;;;6.28;;
13588;SDS011;6865;52.552;13.434;2023-10-13T09:06:54;9.05;;;7.22;;
13588;SDS011;6865;52.552;13.434;2023-10-13T09:12:16;10.85;;;6.75;;
13588;SDS011;6865;52.552;13.434;2023-10-13T09:14:59;10.32;;;6.68;;
13588;SDS011;6865;52.552;13.434;2023-10-13T09:17:48;11.15;;;6.40;;
13588;SDS011;6865;52.552;13.434;2023-10-13T09:20:27;9.50;;;6.75;;
13588;SDS011;6865;52.552;13.434;2023-10-13T09:23:10;9.93;;;6.47;;
13588;SDS011;6865;52.552;13.434;2023-10-13T09:25:50;7.78;;;6.35;;
13588;SDS011;6865;52.552;13.434;2023-10-13T09:28:27;7.55;;;6.40;;
13588;SDS011;6865;52.552;13.434;2023-10-13T09:30:55;10.63;;;6.55;;
13588;SDS011;6865;52.552;13.434;2023-10-13T09:33:26;7.75;;;6.28;;
13588;SDS011;6865;52.552;13.434;2023-10-13T09:36:02;9.50;;;6.97;;
13588;SDS011;6865;52.552;13.434;2023-10-13T09:38:34;10.30;;;6.95;;
13588;SDS011;6865;52.552;13.434;2023-10-13T09:41:03;9.40;;;7.32;;
13588;SDS011;6865;52.552;13.434;2023-10-13T09:43:44;8.18;;;6.60;;
13588;SDS011;6865;52.552;13.434;2023-10-13T09:46:14;8.77;;;6.50;;
13588;SDS011;6865;52.552;13.434;2023-10-13T09:48:47;10.27;;;6.60;;
13588;SDS011;6865;52.552;13.434;2023-10-13T09:51:30;10.25;;;6.47;;
13588;SDS011;6865;52.552;13.434;2023-10-13T09:54:03;8.80;;;6.90;;
13588;SDS011;6865;52.552;13.434;2023-10-13T09:57:04;12.43;;;6.90;;
13588;SDS011;6865;52.552;13.434;2023-10-13T09:59:43;9.93;;;7.35;;
13588;SDS011;6865;52.552;13.434;2023-10-13T10:02:18;8.82;;;6.68;;
13588;SDS011;6865;52.552;13.434;2023-10-13T10:04:55;8.07;;;6.50;;
13588;SDS011;6865;52.552;13.434;2023-10-13T10:07:39;10.20;;;6.95;;
13588;SDS011;6865;52.552;13.434;2023-10-13T10:10:06;9.15;;;6.60;;
13588;SDS011;6865;52.552;13.434;2023-10-13T10:12:48;8.90;;;6.95;;
13588;SDS011;6865;52.552;13.434;2023-10-13T10:15:28;9.65;;;6.97;;
13588;SDS011;6865;52.552;13.434;2023-10-13T10:18:01;10.57;;;7.20;;
13588;SDS011;6865;52.552;13.434;2023-10-13T10:20:30;8.40;;;6.70;;
13588;SDS011;6865;52.552;13.434;2023-10-13T10:23:23;11.43;;;7.20;;
13588;SDS011;6865;52.552;13.434;2023-10-13T10:25:55;9.85;;;6.93;;
13588;SDS011;6865;52.552;13.434;2023-10-13T10:28:35;10.93;;;6.88;;
13588;SDS011;6865;52.552;13.434;2023-10-13T10:31:08;10.10;;;6.43;;
13588;SDS011;6865;52.552;13.434;2023-10-13T10:33:39;9.82;;;6.53;;
13588;SDS011;6865;52.552;13.434;2023-10-13T10:36:06;10.25;;;6.75;;
13588;SDS011;6865;52.552;13.434;2023-10-13T10:38:55;12.43;;;6.20;;
13588;SDS011;6865;52.552;13.434;2023-10-13T10:41:26;11.02;;;6.53;;
13588;SDS011;6865;52.552;13.434;2023-10-13T10:44:15;10.82;;;6.50;;
13588;SDS011;6865;52.552;13.434;2023-10-13T10:46:44;9.82;;;6.82;;
13588;SDS011;6865;52.552;13.434;2023-10-13T10:49:26;8.55;;;6.47;;
13588;SDS011;6865;52.552;13.434;2023-10-13T10:52:00;8.65;;;7.45;;
13588;SDS011;6865;52.552;13.434;2023-10-13T10:54:27;9.88;;;6.97;;
13588;SDS011;6865;52.552;13.434;2023-10-13T10:56:58;9.90;;;7.03;;
13588;SDS011;6865;52.552;13.434;2023-10-13T10:59:44;10.60;;;7.32;;
13588;SDS011;6865;52.552;13.434;2023-10-13T11:02:12;7.95;;;6.22;;
13588;SDS011;6865;52.552;13.434;2023-10-13T11:04:50;8.65;;;7.10;;
13588;SDS011;6865;52.552;13.434;2023-10-13T11:07:21;9.98;;;6.93;;
13588;SDS011;6865;52.552;13.434;2023-10-13T11:09:50;11.98;;;7.00;;
13588;SDS011;6865;52.552;13.434;2023-10-13T11:12:19;11.52;;;6.80;;
13588;SDS011;6865;52.552;13.434;2023-10-13T11:14:59;12.10;;;7.80;;
13588;SDS011;6865;52.552;13.434;2023-10-13T11:17:49;10.35;;;7.43;;
13588;SDS011;6865;52.552;13.434;2023-10-13T11:20:25;13.45;;;7.13;;
13588;SDS011;6865;52.552;13.434;2023-10-13T11:22:52;10.07;;;7.22;;
13588;SDS011;6865;52.552;13.434;2023-10-13T11:25:23;11.02;;;7.28;;
13588;SDS011;6865;52.552;13.434;2023-10-13T11:30:47;10.88;;;7.47;;
13588;SDS011;6865;52.552;13.434;2023-10-13T11:33:18;12.05;;;7.00;;
13588;SDS011;6865;52.552;13.434;2023-10-13T11:35:50;10.02;;;6.78;;
13588;SDS011;6865;52.552;13.434;2023-10-13T11:38:23;10.15;;;6.75;;
13588;SDS011;6865;52.552;13.434;2023-10-13T11:40:56;10.63;;;7.10;;
13588;SDS011;6865;52.552;13.434;2023-10-13T11:43:43;7.70;;;6.90;;
13588;SDS011;6865;52.552;13.434;2023-10-13T11:46:18;15.52;;;7.10;;
13588;SDS011;6865;52.552;13.434;2023-10-13T11:49:03;9.30;;;6.78;;
13588;SDS011;6865;52.552;13.434;2023-10-13T11:51:40;10.25;;;6.70;;
13588;SDS011;6865;52.552;13.434;2023-10-13T11:54:12;9.60;;;6.30;;
13588;SDS011;6865;52.552;13.434;2023-10-13T11:56:39;9.40;;;6.40;;
13588;SDS011;6865;52.552;13.434;2023-10-13T11:59:06;10.55;;;6.55;;
13588;SDS011;6865;52.552;13.434;2023-10-13T12:01:43;10.18;;;7.18;;
13588;SDS011;6865;52.552;13.434;2023-10-13T12:04:32;9.25;;;6.38;;
13588;SDS011;6865;52.552;13.434;2023-10-13T12:07:18;9.55;;;6.57;;
13588;SDS011;6865;52.552;13.434;2023-10-13T12:09:50;12.27;;;7.18;;
13588;SDS011;6865;52.552;13.434;2023-10-13T12:12:24;10.07;;;6.40;;
13588;SDS011;6865;52.552;13.434;2023-10-13T12:14:52;10.20;;;6.70;;
13588;SDS011;6865;52.552;13.434;2023-10-13T12:17:21;9.80;;;6.78;;
13588;SDS011;6865;52.552;13.434;2023-10-13T12:19:54;9.20;;;6.40;;
13588;SDS011;6865;52.552;13.434;2023-10-13T12:22:23;13.55;;;6.65;;
13588;SDS011;6865;52.552;13.434;2023-10-13T12:25:05;10.40;;;6.50;;
13588;SDS011;6865;52.552;13.434;2023-10-13T12:27:54;9.65;;;6.57;;
13588;SDS011;6865;52.552;13.434;2023-10-13T12:30:25;10.35;;;6.20;;
13588;SDS011;6865;52.552;13.434;2023-10-13T12:33:02;10.68;;;6.20;;
13588;SDS011;6865;52.552;13.434;2023-10-13T12:35:35;9.75;;;6.03;;
13588;SDS011;6865;52.552;13.434;2023-10-13T12:38:24;12.27;;;6.97;;
13588;SDS011;6865;52.552;13.434;2023-10-13T12:41:10;8.43;;;6.03;;
13588;SDS011;6865;52.552;13.434;2023-10-13T12:44:02;14.80;;;6.68;;
13588;SDS011;6865;52.552;13.434;2023-10-13T12:46:48;9.68;;;6.30;;
13588;SDS011;6865;52.552;13.434;2023-10-13T12:49:34;8.40;;;5.80;;
13588;SDS011;6865;52.552;13.434;2023-10-13T12:52:13;8.27;;;6.03;;
13588;SDS011;6865;52.552;13.434;2023-10-13T12:54:47;11.13;;;6.28;;
13588;SDS011;6865;52.552;13.434;2023-10-13T12:57:26;10.85;;;6.05;;
13588;SDS011;6865;52.552;13.434;2023-10-13T12:59:54;11.13;;;5.78;;
13588;SDS011;6865;52.552;13.434;2023-10-13T13:02:22;12.98;;;6.05;;
13588;SDS011;6865;52.552;13.434;2023-10-13T13:04:52;11.75;;;5.85;;
13588;SDS011;6865;52.552;13.434;2023-10-13T13:07:32;13.60;;;5.85;;
13588;SDS011;6865;52.552;13.434;2023-10-13T13:10:10;10.10;;;5.93;;
13588;SDS011;6865;52.552;13.434;2023-10-13T13:12:38;13.57;;;5.95;;
13588;SDS011;6865;52.552;13.434;2023-10-13T13:15:04;9.95;;;5.60;;
13588;SDS011;6865;52.552;13.434;2023-10-13T13:17:35;11.23;;;6.15;;
13588;SDS011;6865;52.552;13.434;2023-10-13T13:20:03;9.27;;;5.70;;
13588;SDS011;6865;52.552;13.434;2023-10-13T13:22:37;9.88;;;5.53;;
13588;SDS011;6865;52.552;13.434;2023-10-13T13:25:04;9.02;;;5.40;;
13588;SDS011;6865;52.552;13.434;2023-10-13T13:27:35;13.02;;;6.53;;
13588;SDS011;6865;52.552;13.434;2023-10-13T13:30:05;11.30;;;5.95;;
13588;SDS011;6865;52.552;13.434;2023-10-13T13:32:39;14.23;;;6.07;;
13588;SDS011;6865;52.552;13.434;2023-10-13T13:35:07;11.60;;;6.10;;
13588;SDS011;6865;52.552;13.434;2023-10-13T13:37:40;12.93;;;5.93;;
13588;SDS011;6865;52.552;13.434;2023-10-13T13:40:09;12.70;;;5.97;;
13588;SDS011;6865;52.552;13.434;2023-10-13T13:42:42;9.85;;;5.82;;
13588;SDS011;6865;52.552;13.434;2023-10-13T13:47:48;12.60;;;5.57;;
13588;SDS011;6865;52.552;13.434;2023-10-13T13:50:23;12.05;;;6.50;;
13588;SDS011;6865;52.552;13.434;2023-10-13T13:52:53;11.40;;;6.82;;
13588;SDS011;6865;52.552;13.434;2023-10-13T13:55:22;10.55;;;6.18;;
13588;SDS011;6865;52.552;13.434;2023-10-13T13:57:50;14.15;;;6.10;;
13588;SDS011;6865;52.552;13.434;2023-10-13T14:00:17;8.50;;;5.15;;
13588;SDS011;6865;52.552;13.434;2023-10-13T14:03:06;14.15;;;6.50;;
13588;SDS011;6865;52.552;13.434;2023-10-13T14:05:42;13.13;;;6.15;;
13588;SDS011;6865;52.552;13.434;2023-10-13T14:08:09;10.27;;;5.53;;
13588;SDS011;6865;52.552;13.434;2023-10-13T14:10:38;12.75;;;5.88;;
13588;SDS011;6865;52.552;13.434;2023-10-13T14:13:23;14.50;;;6.22;;
13588;SDS011;6865;52.552;13.434;2023-10-13T14:16:10;16.35;;;5.68;;
13588;SDS011;6865;52.552;13.434;2023-10-13T14:18:46;11.25;;;5.38;;
13588;SDS011;6865;52.552;13.434;2023-10-13T14:21:14;13.98;;;5.72;;
13588;SDS011;6865;52.552;13.434;2023-10-13T14:23:43;13.20;;;5.95;;
13588;SDS011;6865;52.552;13.434;2023-10-13T14:26:14;10.68;;;5.68;;
13588;SDS011;6865;52.552;13.434;2023-10-13T14:28:46;14.25;;;5.97;;
13588;SDS011;6865;52.552;13.434;2023-10-13T14:31:32;12.38;;;6.07;;
13588;SDS011;6865;52.552;13.434;2023-10-13T14:33:59;12.05;;;5.68;;
13588;SDS011;6865;52.552;13.434;2023-10-13T14:36:26;10.70;;;5.70;;
13588;SDS011;6865;52.552;13.434;2023-10-13T14:38:55;10.18;;;5.85;;
13588;SDS011;6865;52.552;13.434;2023-10-13T14:41:23;8.98;;;5.35;;
13588;SDS011;6865;52.552;13.434;2023-10-13T14:43:50;13.40;;;5.55;;
13588;SDS011;6865;52.552;13.434;2023-10-13T14:46:17;9.32;;;5.50;;
13588;SDS011;6865;52.552;13.434;2023-10-13T14:48:52;16.02;;;6.25;;
13588;SDS011;6865;52.552;13.434;2023-10-13T14:51:19;13.45;;;6.10;;
13588;SDS011;6865;52.552;13.434;2023-10-13T14:53:47;14.57;;;5.38;;
13588;SDS011;6865;52.552;13.434;2023-10-13T14:56:16;14.10;;;5.88;;
13588;SDS011;6865;52.552;13.434;2023-10-13T14:58:43;16.02;;;6.05;;
13588;SDS011;6865;52.552;13.434;2023-10-13T15:01:11;12.23;;;5.57;;
13588;SDS011;6865;52.552;13.434;2023-10-13T15:03:45;13.27;;;5.82;;
13588;SDS011;6865;52.552;13.434;2023-10-13T15:06:16;9.07;;;4.78;;
13588;SDS011;6865;52.552;13.434;2023-10-13T15:08:45;13.45;;;5.53;;
13588;SDS011;6865;52.552;13.434;2023-10-13T15:11:15;10.85;;;5.70;;
13588;SDS011;6865;52.552;13.434;2023-10-13T15:13:44;10.95;;;5.18;;
13588;SDS011;6865;52.552;13.434;2023-10-13T15:16:18;13.88;;;6.18;;
13588;SDS011;6865;52.552;13.434;2023-10-13T15:18:50;14.93;;;5.90;;
13588;SDS011;6865;52.552;13.434;2023-10-13T15:21:18;12.40;;;6.22;;
13588;SDS011;6865;52.552;13.434;2023-10-13T15:23:50;12.05;;;6.10;;
13588;SDS011;6865;52.552;13.434;2023-10-13T15:26:18;9.30;;;5.90;;
13588;SDS011;6865;52.552;13.434;2023-10-13T15:28:47;13.40;;;6.10;;
13588;SDS011;6865;52.552;13.434;2023-10-13T15:31:19;13.70;;;5.82;;
13588;SDS011;6865;52.552;13.434;2023-10-13T15:33:53;12.50;;;5.88;;